createdAt,value
2019-02-27T00:01:03.278Z,4.40
2019-02-27T00:03:33.044Z,4.36
2019-02-27T00:06:00.076Z,4.40
2019-02-27T00:08:27.662Z,4.45
2019-02-27T00:10:54.438Z,4.44
2019-02-27T00:13:24.750Z,4.37
2019-02-27T00:15:50.802Z,4.35
2019-02-27T00:18:17.599Z,4.31
2019-02-27T00:20:49.140Z,4.37
2019-02-27T00:23:16.474Z,4.23
2019-02-27T00:25:45.159Z,4.07
2019-02-27T00:28:12.814Z,4.01
2019-02-27T00:30:39.782Z,3.90
2019-02-27T00:33:07.095Z,3.91
2019-02-27T00:35:34.058Z,3.86
2019-02-27T00:38:00.935Z,4.02
2019-02-27T00:40:28.094Z,3.95
2019-02-27T00:42:55.016Z,3.90
2019-02-27T00:45:22.401Z,3.75
2019-02-27T00:47:53.300Z,3.69
2019-02-27T00:50:20.712Z,3.74
2019-02-27T00:52:50.850Z,3.70
2019-02-27T00:55:16.547Z,3.69
2019-02-27T00:57:43.356Z,3.70
2019-02-27T01:00:13.627Z,3.70
2019-02-27T01:02:42.025Z,3.66
2019-02-27T01:05:10.353Z,3.68
2019-02-27T01:07:37.973Z,3.75
2019-02-27T01:10:12.047Z,3.76
2019-02-27T01:12:37.305Z,3.77
2019-02-27T01:15:05.124Z,3.86
2019-02-27T01:17:32.198Z,3.92
2019-02-27T01:19:59.057Z,3.94
2019-02-27T01:22:26.365Z,3.88
2019-02-27T01:24:53.066Z,3.89
2019-02-27T01:27:21.425Z,4.02
2019-02-27T01:29:51.081Z,3.73
2019-02-27T01:32:17.249Z,3.73
2019-02-27T01:34:45.133Z,3.79
2019-02-27T01:37:12.295Z,3.93
2019-02-27T01:39:41.834Z,3.90
2019-02-27T01:42:08.138Z,3.98
2019-02-27T01:44:35.444Z,4.05
2019-02-27T01:47:03.047Z,4.04
2019-02-27T01:49:30.273Z,3.95
2019-02-27T01:51:59.123Z,3.97
2019-02-27T01:54:26.826Z,3.97
2019-02-27T01:56:54.350Z,3.92
2019-02-27T01:59:21.955Z,3.89
2019-02-27T02:01:49.407Z,3.91
2019-02-27T02:04:19.989Z,3.88
2019-02-27T02:06:46.634Z,3.89
2019-02-27T02:09:34.472Z,3.97
2019-02-27T02:12:07.835Z,4.10
2019-02-27T02:14:54.460Z,4.08
2019-02-27T02:17:50.640Z,3.95
2019-02-27T02:20:28.779Z,4.03
2019-02-27T02:23:06.074Z,4.03
2019-02-27T02:26:14.454Z,4.08
2019-02-27T02:29:42.026Z,3.98
2019-02-27T02:32:17.518Z,3.95
2019-02-27T02:35:14.841Z,3.93
2019-02-27T02:38:21.585Z,3.96
2019-02-27T02:41:35.969Z,4.02
2019-02-27T02:44:12.858Z,4.10
2019-02-27T02:46:54.156Z,4.10
2019-02-27T02:49:47.290Z,4.01
2019-02-27T02:52:40.933Z,3.95
2019-02-27T02:55:34.591Z,3.85
2019-02-27T02:58:13.668Z,3.79
2019-02-27T03:01:00.554Z,3.76
2019-02-27T03:03:48.748Z,3.86
2019-02-27T03:06:53.032Z,3.91
2019-02-27T03:09:59.978Z,3.87
2019-02-27T03:13:06.045Z,3.79
2019-02-27T03:16:15.554Z,3.78
2019-02-27T03:19:11.530Z,3.78
2019-02-27T03:22:03.753Z,3.89
2019-02-27T03:25:19.978Z,3.93
2019-02-27T03:28:19.801Z,3.96
2019-02-27T03:31:18.067Z,3.77
2019-02-27T03:34:32.622Z,3.81
2019-02-27T03:37:24.060Z,3.79
2019-02-27T03:40:33.071Z,3.84
2019-02-27T03:43:45.622Z,3.83
2019-02-27T03:46:33.118Z,3.78
2019-02-27T03:49:20.862Z,3.71
2019-02-27T03:52:10.163Z,3.72
2019-02-27T03:55:11.365Z,3.76
2019-02-27T03:58:14.243Z,3.84
2019-02-27T04:01:17.398Z,3.81
2019-02-27T04:04:30.611Z,3.74
2019-02-27T04:07:09.246Z,3.73
2019-02-27T04:09:36.424Z,3.71
2019-02-27T04:12:03.794Z,3.71
2019-02-27T04:14:32.344Z,3.66
2019-02-27T04:17:05.455Z,3.67
2019-02-27T04:19:29.655Z,3.60
2019-02-27T04:22:00.544Z,3.58
2019-02-27T04:24:26.549Z,3.53
2019-02-27T04:26:53.763Z,3.64
2019-02-27T04:29:21.074Z,3.60
2019-02-27T04:31:48.643Z,3.69
2019-02-27T04:34:15.890Z,3.65
2019-02-27T04:36:46.981Z,3.67
2019-02-27T04:39:14.581Z,3.60
2019-02-27T04:41:42.053Z,3.51
2019-02-27T04:44:09.488Z,3.60
2019-02-27T04:46:36.310Z,3.75
2019-02-27T04:49:04.871Z,3.74
2019-02-27T04:51:32.405Z,3.73
2019-02-27T04:54:00.685Z,3.57
2019-02-27T04:56:27.937Z,3.42
2019-02-27T04:58:54.730Z,3.48
2019-02-27T05:01:22.009Z,3.51
2019-02-27T05:03:49.351Z,3.62
2019-02-27T05:06:16.520Z,3.78
2019-02-27T05:08:43.196Z,3.72
2019-02-27T05:11:14.016Z,3.51
2019-02-27T05:13:39.633Z,3.34
2019-02-27T05:16:07.180Z,3.30
2019-02-27T05:18:33.862Z,3.30
2019-02-27T05:21:00.953Z,3.33
2019-02-27T05:23:27.623Z,3.26
2019-02-27T05:25:54.529Z,3.27
2019-02-27T05:28:21.890Z,3.10
2019-02-27T05:30:49.569Z,3.09
2019-02-27T05:33:16.264Z,3.19
2019-02-27T05:35:43.875Z,3.32
2019-02-27T05:38:10.589Z,3.29
2019-02-27T05:40:37.392Z,3.33
2019-02-27T05:43:04.601Z,3.41
2019-02-27T05:45:31.647Z,3.39
2019-02-27T05:47:59.106Z,3.37
2019-02-27T05:50:25.799Z,3.22
2019-02-27T05:52:52.810Z,3.16
2019-02-27T05:55:20.574Z,3.09
2019-02-27T05:57:47.572Z,3.04
2019-02-27T06:00:15.321Z,3.14
2019-02-27T06:02:44.981Z,3.23
2019-02-27T06:05:10.838Z,3.22
2019-02-27T06:07:38.051Z,3.22
2019-02-27T06:10:06.827Z,3.20
2019-02-27T06:12:33.544Z,3.09
2019-02-27T06:15:01.117Z,3.11
2019-02-27T06:17:28.163Z,3.20
2019-02-27T06:19:54.843Z,3.22
2019-02-27T06:22:21.532Z,3.24
2019-02-27T06:24:48.794Z,3.13
2019-02-27T06:27:15.954Z,3.05
2019-02-27T06:29:43.022Z,3.11
2019-02-27T06:32:12.146Z,3.14
2019-02-27T06:34:39.436Z,3.24
2019-02-27T06:37:06.794Z,3.20
2019-02-27T06:39:34.464Z,3.25
2019-02-27T06:42:02.305Z,3.27
2019-02-27T06:44:30.832Z,3.30
2019-02-27T06:46:58.070Z,3.44
2019-02-27T06:49:25.099Z,3.35
2019-02-27T06:51:52.681Z,3.36
2019-02-27T06:54:19.386Z,3.34
2019-02-27T06:56:46.090Z,3.26
2019-02-27T06:59:13.308Z,3.28
2019-02-27T07:01:40.731Z,3.27
2019-02-27T07:04:08.324Z,3.32
2019-02-27T07:06:36.882Z,3.49
2019-02-27T07:09:05.670Z,3.54
2019-02-27T07:11:34.534Z,3.60
2019-02-27T07:14:01.242Z,3.68
2019-02-27T07:16:28.012Z,3.73
2019-02-27T07:18:55.087Z,3.77
2019-02-27T07:21:22.638Z,3.79
2019-02-27T07:23:50.218Z,3.78
2019-02-27T07:26:17.962Z,3.85
2019-02-27T07:28:44.850Z,3.95
2019-02-27T07:31:17.270Z,4.09
2019-02-27T07:33:41.709Z,4.07
2019-02-27T07:36:09.333Z,4.18
2019-02-27T07:38:37.032Z,4.27
2019-02-27T07:41:04.774Z,4.36
2019-02-27T07:43:31.906Z,4.35
2019-02-27T07:46:00.106Z,4.47
2019-02-27T07:48:28.388Z,4.50
2019-02-27T07:50:55.723Z,4.61
2019-02-27T07:53:22.619Z,4.62
2019-02-27T07:55:49.696Z,4.75
2019-02-27T07:58:17.914Z,4.88
2019-02-27T08:00:47.136Z,4.96
2019-02-27T08:03:15.169Z,5.10
2019-02-27T08:05:42.828Z,5.16
2019-02-27T08:08:12.214Z,5.20
2019-02-27T08:10:40.184Z,5.34
2019-02-27T08:13:07.489Z,5.51
2019-02-27T08:15:34.890Z,5.61
2019-02-27T08:18:02.724Z,5.75
2019-02-27T08:20:29.876Z,5.85
2019-02-27T08:22:57.975Z,5.97
2019-02-27T08:25:25.103Z,6.07
2019-02-27T08:27:54.152Z,5.75
2019-02-27T08:30:21.370Z,6.31
2019-02-27T08:32:49.327Z,6.40
2019-02-27T08:35:17.174Z,6.51
2019-02-27T08:37:44.215Z,6.62
2019-02-27T08:40:11.198Z,6.80
2019-02-27T08:42:40.561Z,6.93
2019-02-27T08:45:08.071Z,7.05
2019-02-27T08:47:34.739Z,7.16
2019-02-27T08:50:02.784Z,7.27
2019-02-27T08:52:30.425Z,7.49
2019-02-27T08:54:57.895Z,7.57
2019-02-27T08:57:24.563Z,7.72
2019-02-27T08:59:51.402Z,7.88
2019-02-27T09:02:18.934Z,8.06
2019-02-27T09:04:46.212Z,8.08
2019-02-27T09:07:12.898Z,8.30
2019-02-27T09:09:40.082Z,8.45
2019-02-27T09:12:07.119Z,8.60
2019-02-27T09:14:33.811Z,8.68
2019-02-27T09:17:00.993Z,8.84
2019-02-27T09:19:28.350Z,8.97
2019-02-27T09:21:56.014Z,9.15
2019-02-27T09:24:23.158Z,9.36
2019-02-27T09:26:49.833Z,9.46
2019-02-27T09:29:18.711Z,9.60
2019-02-27T09:31:50.775Z,9.74
2019-02-27T09:34:15.446Z,9.89
2019-02-27T09:36:43.879Z,10.08
2019-02-27T09:39:11.496Z,10.28
2019-02-27T09:41:38.272Z,10.39
2019-02-27T09:44:05.741Z,10.67
2019-02-27T09:46:33.263Z,10.67
2019-02-27T09:48:59.945Z,10.85
2019-02-27T09:51:27.045Z,10.99
2019-02-27T09:53:54.805Z,11.37
2019-02-27T09:56:21.581Z,11.50
2019-02-27T09:58:48.818Z,11.50
2019-02-27T10:01:17.278Z,11.52
2019-02-27T10:03:44.412Z,11.61
2019-02-27T10:06:11.784Z,11.61
2019-02-27T10:08:38.563Z,11.75
2019-02-27T10:11:05.979Z,11.95
2019-02-27T10:13:37.497Z,12.17
2019-02-27T10:16:03.672Z,12.20
2019-02-27T10:18:30.681Z,12.31
2019-02-27T10:20:58.162Z,12.25
2019-02-27T10:23:24.838Z,12.51
2019-02-27T10:25:51.521Z,12.55
2019-02-27T10:28:18.696Z,12.56
2019-02-27T10:30:49.569Z,12.58
2019-02-27T10:33:14.662Z,12.72
2019-02-27T10:35:42.074Z,12.98
2019-02-27T10:38:09.537Z,13.17
2019-02-27T10:40:36.680Z,13.22
2019-02-27T10:43:03.480Z,13.30
2019-02-27T10:45:30.253Z,13.28
2019-02-27T10:47:57.173Z,13.33
2019-02-27T10:50:24.098Z,13.43
2019-02-27T10:52:50.831Z,13.21
2019-02-27T10:55:18.255Z,13.45
2019-02-27T10:57:46.749Z,13.53
2019-02-27T11:00:17.458Z,13.60
2019-02-27T11:02:45.189Z,13.72
2019-02-27T11:05:15.109Z,13.60
2019-02-27T11:07:42.877Z,13.78
2019-02-27T11:10:10.562Z,13.85
2019-02-27T11:12:38.566Z,13.96
2019-02-27T11:15:08.182Z,14.16
2019-02-27T11:17:35.501Z,14.30
2019-02-27T11:20:02.763Z,14.26
2019-02-27T11:22:31.772Z,14.12
2019-02-27T11:24:59.717Z,13.98
2019-02-27T11:27:27.994Z,14.16
2019-02-27T11:29:59.611Z,14.12
2019-02-27T11:32:24.056Z,14.04
2019-02-27T11:34:51.380Z,14.14
2019-02-27T11:37:18.533Z,14.33
2019-02-27T11:39:45.575Z,14.52
2019-02-27T11:42:12.773Z,14.30
2019-02-27T11:44:40.731Z,14.29
2019-02-27T11:47:10.892Z,14.25
2019-02-27T11:49:38.757Z,14.34
2019-02-27T11:52:06.551Z,14.58
2019-02-27T11:54:33.817Z,14.56
2019-02-27T11:57:00.501Z,14.70
2019-02-27T11:59:27.686Z,14.57
2019-02-27T12:01:56.151Z,14.55
2019-02-27T12:04:24.039Z,14.78
2019-02-27T12:06:51.710Z,14.98
2019-02-27T12:09:19.567Z,14.81
2019-02-27T12:11:48.707Z,14.79
2019-02-27T12:14:15.181Z,14.69
2019-02-27T12:16:42.249Z,14.68
2019-02-27T12:19:09.480Z,14.89
2019-02-27T12:21:36.382Z,14.54
2019-02-27T12:24:05.381Z,14.89
2019-02-27T12:26:34.454Z,15.03
2019-02-27T12:29:01.701Z,15.17
2019-02-27T12:31:28.837Z,15.13
2019-02-27T12:33:56.448Z,15.33
2019-02-27T12:36:23.840Z,15.54
2019-02-27T12:38:51.507Z,15.58
2019-02-27T12:41:18.974Z,15.74
2019-02-27T12:43:52.189Z,15.98
2019-02-27T12:46:17.479Z,16.15
2019-02-27T12:48:46.424Z,16.37
2019-02-27T12:51:14.720Z,16.44
2019-02-27T12:53:42.497Z,16.44
2019-02-27T12:56:09.462Z,16.31
2019-02-27T12:58:39.195Z,16.59
2019-02-27T13:01:06.612Z,16.71
2019-02-27T13:03:34.556Z,17.07
2019-02-27T13:06:01.814Z,17.26
2019-02-27T13:08:28.603Z,17.16
2019-02-27T13:10:56.522Z,17.24
2019-02-27T13:13:25.861Z,17.52
2019-02-27T13:15:53.596Z,17.74
2019-02-27T13:18:21.472Z,18.00
2019-02-27T13:20:49.223Z,17.95
2019-02-27T13:23:16.545Z,18.14
2019-02-27T13:25:43.840Z,17.90
2019-02-27T13:28:11.082Z,17.80
2019-02-27T13:30:41.312Z,17.83
2019-02-27T13:33:07.210Z,18.14
2019-02-27T13:35:34.687Z,17.85
2019-02-27T13:38:02.456Z,18.16
2019-02-27T13:40:35.267Z,18.32
2019-02-27T13:42:58.714Z,18.49
2019-02-27T13:45:25.858Z,18.04
2019-02-27T13:47:52.877Z,18.87
2019-02-27T13:50:24.409Z,19.56
2019-02-27T13:52:50.731Z,19.12
2019-02-27T13:55:18.192Z,18.39
2019-02-27T13:57:45.321Z,18.70
2019-02-27T14:00:20.957Z,18.91
2019-02-27T14:02:48.520Z,18.78
2019-02-27T14:05:16.251Z,19.19
2019-02-27T14:07:44.004Z,19.16
2019-02-27T14:10:16.660Z,19.68
2019-02-27T14:12:41.530Z,19.93
2019-02-27T14:15:09.234Z,20.13
2019-02-27T14:17:41.348Z,20.14
2019-02-27T14:20:08.217Z,20.07
2019-02-27T14:22:34.918Z,20.39
2019-02-27T14:25:01.767Z,20.45
2019-02-27T14:27:29.596Z,20.29
2019-02-27T14:29:56.284Z,20.33
2019-02-27T14:32:23.366Z,19.76
2019-02-27T14:34:50.097Z,19.98
2019-02-27T14:37:17.256Z,19.75
2019-02-27T14:39:43.977Z,19.71
2019-02-27T14:42:11.131Z,19.77
2019-02-27T14:44:38.932Z,19.57
2019-02-27T14:47:05.655Z,19.59
2019-02-27T14:49:33.624Z,19.60
2019-02-27T14:52:01.189Z,19.93
2019-02-27T14:54:29.082Z,19.81
2019-02-27T14:56:56.906Z,19.79
2019-02-27T14:59:23.713Z,20.16
2019-02-27T15:01:51.433Z,19.92
2019-02-27T15:04:20.190Z,19.73
2019-02-27T15:06:50.372Z,19.67
2019-02-27T15:09:16.973Z,19.67
2019-02-27T15:11:44.941Z,19.29
2019-02-27T15:14:12.436Z,19.36
2019-02-27T15:16:39.251Z,18.96
2019-02-27T15:19:06.430Z,18.73
2019-02-27T15:21:33.697Z,18.35
2019-02-27T15:24:01.360Z,18.03
2019-02-27T15:26:29.260Z,18.06
2019-02-27T15:28:56.429Z,18.00
2019-02-27T15:31:23.255Z,17.80
2019-02-27T15:33:50.625Z,17.62
2019-02-27T15:36:17.510Z,17.61
2019-02-27T15:38:47.024Z,17.51
2019-02-27T15:41:16.763Z,17.46
2019-02-27T15:43:43.967Z,17.44
2019-02-27T15:46:11.287Z,17.17
2019-02-27T15:48:40.875Z,17.08
2019-02-27T15:51:07.900Z,16.91
2019-02-27T15:53:35.502Z,16.84
2019-02-27T15:56:05.479Z,16.83
2019-02-27T15:58:32.112Z,16.85
2019-02-27T16:00:59.729Z,16.60
2019-02-27T16:03:26.869Z,16.56
2019-02-27T16:05:54.273Z,16.44
2019-02-27T16:08:23.436Z,16.36
2019-02-27T16:10:54.727Z,16.38
2019-02-27T16:13:20.881Z,16.30
2019-02-27T16:15:49.171Z,16.21
2019-02-27T16:18:16.750Z,16.16
2019-02-27T16:20:43.576Z,16.14
2019-02-27T16:23:10.259Z,16.03
2019-02-27T16:25:37.666Z,15.97
2019-02-27T16:28:04.579Z,15.85
2019-02-27T16:30:33.044Z,15.81
2019-02-27T16:33:00.649Z,15.70
2019-02-27T16:35:27.946Z,15.68
2019-02-27T16:37:57.583Z,15.61
2019-02-27T16:40:24.741Z,15.55
2019-02-27T16:42:52.869Z,15.46
2019-02-27T16:45:22.676Z,15.38
2019-02-27T16:47:49.880Z,15.26
2019-02-27T16:50:23.902Z,15.20
2019-02-27T16:52:48.247Z,15.12
2019-02-27T16:55:16.271Z,15.08
2019-02-27T16:57:43.067Z,14.98
2019-02-27T17:00:12.673Z,14.95
2019-02-27T17:02:40.501Z,14.83
2019-02-27T17:05:08.874Z,14.76
2019-02-27T17:07:38.359Z,14.63
2019-02-27T17:10:09.104Z,14.62
2019-02-27T17:12:38.260Z,14.58
2019-02-27T17:15:05.033Z,14.49
2019-02-27T17:17:32.532Z,14.42
2019-02-27T17:19:59.732Z,14.32
2019-02-27T17:22:26.431Z,14.28
2019-02-27T17:24:55.197Z,14.20
2019-02-27T17:27:22.165Z,14.12
2019-02-27T17:29:49.442Z,14.08
2019-02-27T17:32:16.229Z,14.01
2019-02-27T17:34:47.278Z,13.96
2019-02-27T17:37:11.903Z,13.88
2019-02-27T17:39:39.796Z,13.82
2019-02-27T17:42:06.533Z,13.75
2019-02-27T17:44:35.289Z,13.69
2019-02-27T17:47:02.402Z,13.67
2019-02-27T17:49:30.744Z,13.62
2019-02-27T17:51:58.308Z,13.57
2019-02-27T17:54:25.758Z,13.51
2019-02-27T17:56:53.737Z,13.48
2019-02-27T17:59:21.304Z,13.46
2019-02-27T18:01:48.306Z,13.46
2019-02-27T18:04:15.550Z,13.01
2019-02-27T18:06:42.642Z,13.36
2019-02-27T18:09:11.082Z,13.30
2019-02-27T18:11:38.842Z,13.27
2019-02-27T18:14:09.980Z,13.20
2019-02-27T18:16:36.538Z,13.20
2019-02-27T18:19:03.889Z,13.17
2019-02-27T18:21:33.814Z,13.22
2019-02-27T18:24:00.174Z,13.20
2019-02-27T18:26:28.251Z,13.05
2019-02-27T18:28:55.473Z,13.09
2019-02-27T18:31:26.681Z,13.07
2019-02-27T18:33:51.613Z,12.95
2019-02-27T18:36:19.172Z,12.94
2019-02-27T18:38:46.639Z,12.91
2019-02-27T18:41:14.511Z,12.95
2019-02-27T18:43:43.175Z,12.81
2019-02-27T18:46:10.301Z,12.81
2019-02-27T18:48:37.585Z,12.73
2019-02-27T18:51:04.385Z,12.68
2019-02-27T18:53:32.279Z,12.73
2019-02-27T18:56:01.929Z,12.62
2019-02-27T18:58:28.597Z,12.55
2019-02-27T19:00:55.285Z,12.51
2019-02-27T19:03:25.418Z,12.51
2019-02-27T19:05:51.201Z,12.41
2019-02-27T19:08:18.471Z,12.35
2019-02-27T19:10:45.706Z,12.31
2019-02-27T19:13:12.900Z,12.27
2019-02-27T19:15:45.299Z,12.22
2019-02-27T19:18:09.940Z,12.19
2019-02-27T19:20:37.420Z,12.09
2019-02-27T19:23:04.642Z,12.04
2019-02-27T19:25:34.812Z,12.02
2019-02-27T19:28:01.416Z,11.96
2019-02-27T19:30:28.872Z,11.90
2019-02-27T19:33:01.593Z,11.90
2019-02-27T19:35:25.426Z,11.81
2019-02-27T19:37:52.465Z,11.73
2019-02-27T19:40:20.659Z,11.64
2019-02-27T19:42:52.657Z,11.56
2019-02-27T19:45:20.613Z,11.49
2019-02-27T19:47:51.848Z,11.45
2019-02-27T19:50:18.322Z,11.45
2019-02-27T19:52:45.331Z,11.22
2019-02-27T19:55:13.545Z,11.22
2019-02-27T19:57:42.327Z,11.19
2019-02-27T20:00:10.299Z,11.13
2019-02-27T20:02:38.770Z,11.13
2019-02-27T20:05:06.623Z,11.08
2019-02-27T20:07:35.787Z,11.07
2019-02-27T20:10:04.058Z,10.99
2019-02-27T20:12:31.601Z,10.99
2019-02-27T20:14:59.795Z,10.91
2019-02-27T20:17:32.825Z,10.88
2019-02-27T20:19:57.052Z,10.86
2019-02-27T20:22:23.844Z,10.86
2019-02-27T20:24:51.038Z,10.81
2019-02-27T20:27:18.730Z,10.77
2019-02-27T20:29:45.946Z,10.74
2019-02-27T20:32:14.523Z,10.73
2019-02-27T20:34:45.903Z,10.65
2019-02-27T20:37:15.317Z,10.63
2019-02-27T20:39:43.983Z,10.63
2019-02-27T20:42:13.671Z,10.58
2019-02-27T20:44:39.702Z,10.50
2019-02-27T20:47:24.160Z,10.50
2019-02-27T20:50:20.858Z,10.41
2019-02-27T20:53:02.342Z,10.40
2019-02-27T20:55:48.954Z,10.33
2019-02-27T20:58:34.811Z,10.31
2019-02-27T21:01:18.721Z,10.31
2019-02-27T21:04:06.192Z,10.27
2019-02-27T21:06:53.478Z,10.27
2019-02-27T21:09:23.845Z,10.22
2019-02-27T21:11:50.534Z,10.23
2019-02-27T21:14:20.562Z,10.14
2019-02-27T21:16:48.090Z,10.09
2019-02-27T21:19:15.059Z,10.13
2019-02-27T21:21:41.986Z,10.10
2019-02-27T21:24:10.165Z,10.15
2019-02-27T21:26:36.936Z,10.12
2019-02-27T21:29:05.238Z,10.17
2019-02-27T21:31:33.689Z,10.13
2019-02-27T21:34:01.097Z,10.15
2019-02-27T21:36:28.387Z,10.17
2019-02-27T21:38:55.799Z,10.12
2019-02-27T21:41:22.854Z,10.11
2019-02-27T21:43:50.636Z,10.11
2019-02-27T21:46:17.546Z,10.10
2019-02-27T21:48:44.712Z,10.06
2019-02-27T21:51:13.863Z,10.01
2019-02-27T21:53:42.006Z,9.87
2019-02-27T21:56:09.444Z,9.87
2019-02-27T21:58:36.688Z,9.83
2019-02-27T22:01:03.510Z,9.74
2019-02-27T22:03:30.388Z,9.73
2019-02-27T22:05:58.196Z,9.66
2019-02-27T22:08:25.576Z,9.68
2019-02-27T22:10:53.744Z,9.64
2019-02-27T22:13:28.899Z,9.57
2019-02-27T22:15:55.801Z,9.47
2019-02-27T22:18:19.012Z,9.47
2019-02-27T22:20:46.379Z,9.39
2019-02-27T22:23:13.698Z,9.28
2019-02-27T22:25:40.778Z,9.20
2019-02-27T22:28:07.949Z,9.18
2019-02-27T22:30:34.891Z,9.16
2019-02-27T22:33:02.321Z,9.16
2019-02-27T22:35:30.440Z,9.07
2019-02-27T22:37:57.945Z,9.05
2019-02-27T22:40:24.616Z,9.01
2019-02-27T22:42:51.760Z,8.90
2019-02-27T22:45:19.425Z,8.88
2019-02-27T22:47:47.197Z,8.82
2019-02-27T22:50:15.443Z,8.80
2019-02-27T22:52:42.762Z,8.74
2019-02-27T22:55:10.751Z,8.70
2019-02-27T22:57:37.786Z,8.72
2019-02-27T23:00:18.275Z,8.62
2019-02-27T23:02:47.442Z,8.65
2019-02-27T23:05:14.490Z,8.63
2019-02-27T23:07:42.193Z,8.55
2019-02-27T23:10:09.865Z,8.60
2019-02-27T23:12:39.466Z,8.46
2019-02-27T23:15:07.285Z,8.40
2019-02-27T23:17:33.974Z,8.40
2019-02-27T23:20:00.991Z,8.35
2019-02-27T23:22:29.688Z,8.28
2019-02-27T23:25:05.924Z,8.26
2019-02-27T23:27:33.428Z,8.27
2019-02-27T23:30:00.427Z,8.19
2019-02-27T23:32:29.162Z,8.19
2019-02-27T23:34:56.297Z,8.13
2019-02-27T23:37:24.271Z,8.07
2019-02-27T23:39:51.390Z,7.98
2019-02-27T23:42:18.098Z,7.94
2019-02-27T23:44:44.991Z,7.88
2019-02-27T23:47:12.439Z,7.91
2019-02-27T23:49:40.285Z,7.81
2019-02-27T23:52:07.670Z,7.79
2019-02-27T23:54:35.790Z,7.75
2019-02-27T23:57:03.719Z,7.74
2019-02-27T23:59:32.979Z,7.71
